Terminal Aerodrome Forecast
Issued by NWS

Home | Current Version | Previous Version | Text Only | Print | Product List | Glossary On
Versions: 1 2 3 4 5 6 7 8 9 10 11 12 13 14 15 16 17 18 19 20 21 22 23 24 25 26 27 28 29 30 31 32
000
FTUS41 KBOX 232341
TAFFMH
TAF
KFMH 232341Z 2400/2424 22010KT P6SM OVC006
     FM240300 23009KT 4SM BR BKN003 WS020/25040KT
     FM240700 23007KT 3/4SM BR BKN003
     FM241500 22008KT 4SM BR BKN012
     FM241600 22009KT P6SM BKN150
     FM241800 21010KT P6SM BKN020
     FM241900 21010KT P6SM BKN150=

USA.gov is the U.S. government's official web portal to all federal, state and local government web resources and services.